createdAt,value
2018-06-01T00:00:44.806Z,24.72
2018-06-01T00:01:50.726Z,24.72
2018-06-01T00:02:56.496Z,24.72
2018-06-01T00:04:02.297Z,24.69
2018-06-01T00:05:08.075Z,24.71
2018-06-01T00:06:13.848Z,24.68
2018-06-01T00:07:20.704Z,24.65
2018-06-01T00:08:26.239Z,24.65
2018-06-01T00:09:32.803Z,24.63
2018-06-01T00:10:38.567Z,24.63
2018-06-01T00:11:45.117Z,24.65
2018-06-01T00:12:51.651Z,24.63
2018-06-01T00:13:58.206Z,24.65
2018-06-01T00:15:03.984Z,24.62
2018-06-01T00:16:10.523Z,24.65
2018-06-01T00:17:16.280Z,24.66
2018-06-01T00:18:22.823Z,24.68
2018-06-01T00:19:28.596Z,24.69
2018-06-01T00:20:35.161Z,24.70
2018-06-01T00:21:40.919Z,24.72
2018-06-01T00:22:46.709Z,24.73
2018-06-01T00:23:53.980Z,24.74
2018-06-01T00:24:59.765Z,24.74
2018-06-01T00:26:05.236Z,24.75
2018-06-01T00:27:11.015Z,24.75
2018-06-01T00:28:17.545Z,24.75
2018-06-01T00:29:23.339Z,24.75
2018-06-01T00:30:29.116Z,24.75
2018-06-01T00:31:34.909Z,24.76
2018-06-01T00:32:41.466Z,24.77
2018-06-01T00:33:48.011Z,24.78
2018-06-01T00:34:53.775Z,24.79
2018-06-01T00:35:59.572Z,24.79
2018-06-01T00:37:05.456Z,24.79
2018-06-01T00:38:12.031Z,24.80
2018-06-01T00:39:17.811Z,24.81
2018-06-01T00:40:24.396Z,24.82
2018-06-01T00:41:30.165Z,24.83
2018-06-01T00:42:36.722Z,24.83
2018-06-01T00:43:43.300Z,24.82
2018-06-01T00:44:49.873Z,24.82
2018-06-01T00:45:55.872Z,24.81
2018-06-01T00:47:01.639Z,24.78
2018-06-01T00:48:08.191Z,24.77
2018-06-01T00:49:14.752Z,24.77
2018-06-01T00:50:21.295Z,24.77
2018-06-01T00:51:27.071Z,24.78
2018-06-01T00:52:33.589Z,24.79
2018-06-01T00:53:39.595Z,24.79
2018-06-01T00:55:02.351Z,24.79
2018-06-01T00:56:08.137Z,24.75
2018-06-01T00:57:14.673Z,24.77
2018-06-01T00:58:21.938Z,24.76
2018-06-01T00:59:27.735Z,24.78
2018-06-01T01:00:33.510Z,24.75
2018-06-01T01:01:39.442Z,24.72
2018-06-01T01:02:46.144Z,24.68
2018-06-01T01:03:53.435Z,24.68
2018-06-01T01:04:59.227Z,24.68
2018-06-01T01:06:05.007Z,24.65
2018-06-01T01:07:10.784Z,24.63
2018-06-01T01:08:17.319Z,24.63
2018-06-01T01:09:23.860Z,24.63
2018-06-01T01:10:29.671Z,24.62
2018-06-01T01:11:35.439Z,24.58
2018-06-01T01:12:41.228Z,24.55
2018-06-01T01:13:47.758Z,24.55
2018-06-01T01:14:53.541Z,24.58
2018-06-01T01:16:00.103Z,24.59
2018-06-01T01:17:05.542Z,24.57
2018-06-01T01:18:11.329Z,24.56
2018-06-01T01:19:17.095Z,24.54
2018-06-01T01:20:23.636Z,24.57
2018-06-01T01:21:29.649Z,24.52
2018-06-01T01:22:35.443Z,24.50
2018-06-01T01:23:41.235Z,24.50
2018-06-01T01:24:47.011Z,24.50
2018-06-01T01:25:53.323Z,24.53
2018-06-01T01:26:59.131Z,24.54
2018-06-01T01:28:05.677Z,24.55
2018-06-01T01:29:11.991Z,24.57
2018-06-01T01:30:17.788Z,24.58
2018-06-01T01:31:24.319Z,24.59
2018-06-01T01:32:30.118Z,24.59
2018-06-01T01:33:35.895Z,24.57
2018-06-01T01:34:41.678Z,24.57
2018-06-01T01:35:48.239Z,24.55
2018-06-01T01:36:54.797Z,24.53
2018-06-01T01:38:01.358Z,24.51
2018-06-01T01:39:07.573Z,24.52
2018-06-01T01:40:13.149Z,24.52
2018-06-01T01:41:19.693Z,24.51
2018-06-01T01:42:25.467Z,24.50
2018-06-01T01:43:31.638Z,24.51
2018-06-01T01:44:37.417Z,24.51
2018-06-01T01:45:43.192Z,24.51
2018-06-01T01:46:49.731Z,24.50
2018-06-01T01:47:55.525Z,24.47
2018-06-01T01:49:01.328Z,24.46
2018-06-01T01:50:07.867Z,24.47
2018-06-01T01:51:13.668Z,24.43
2018-06-01T01:52:19.682Z,24.41
2018-06-01T01:53:26.217Z,24.43
2018-06-01T01:54:32.022Z,24.43
2018-06-01T01:55:37.794Z,24.43
2018-06-01T01:56:43.559Z,24.40
2018-06-01T01:57:50.112Z,24.37
2018-06-01T01:58:55.895Z,24.34
2018-06-01T02:00:01.696Z,24.34
2018-06-01T02:01:07.463Z,24.36
2018-06-01T02:02:13.627Z,24.35
2018-06-01T02:03:19.399Z,24.34
2018-06-01T02:04:25.175Z,24.35
2018-06-01T02:05:30.754Z,24.34
2018-06-01T02:06:36.528Z,24.33
2018-06-01T02:07:42.301Z,24.31
2018-06-01T02:08:48.113Z,24.31
2018-06-01T02:09:53.889Z,24.30
2018-06-01T02:11:00.466Z,24.27
2018-06-01T02:12:06.684Z,24.27
2018-06-01T02:13:12.457Z,24.29
2018-06-01T02:14:19.009Z,24.29
2018-06-01T02:15:24.778Z,24.24
2018-06-01T02:16:30.615Z,24.27
2018-06-01T02:17:36.387Z,24.26
2018-06-01T02:18:42.168Z,24.25
2018-06-01T02:19:48.718Z,24.23
2018-06-01T02:20:54.495Z,24.23
2018-06-01T02:22:00.299Z,24.23
2018-06-01T02:23:05.411Z,24.23
2018-06-01T02:24:11.023Z,24.25
2018-06-01T02:25:16.599Z,24.24
2018-06-01T02:26:22.367Z,24.23
2018-06-01T02:27:28.933Z,24.22
2018-06-01T02:28:35.494Z,24.20
2018-06-01T02:29:41.837Z,24.19
2018-06-01T02:30:48.396Z,24.15
2018-06-01T02:31:54.936Z,24.09
2018-06-01T02:33:00.744Z,24.07
2018-06-01T02:34:05.613Z,24.08
2018-06-01T02:35:12.169Z,24.09
2018-06-01T02:36:17.943Z,24.06
2018-06-01T02:37:23.711Z,24.03
2018-06-01T02:38:29.845Z,24.02
2018-06-01T02:39:35.602Z,23.93
2018-06-01T02:40:41.512Z,23.90
2018-06-01T02:41:48.051Z,23.85
2018-06-01T02:42:53.816Z,23.81
2018-06-01T02:44:00.384Z,23.82
2018-06-01T02:45:05.952Z,23.79
2018-06-01T02:46:11.493Z,23.78
2018-06-01T02:47:17.266Z,23.77
2018-06-01T02:48:24.382Z,23.74
2018-06-01T02:49:30.181Z,23.70
2018-06-01T02:50:36.740Z,23.69
2018-06-01T02:51:42.515Z,23.66
2018-06-01T02:52:49.048Z,23.62
2018-06-01T02:53:54.868Z,23.62
2018-06-01T02:55:00.666Z,23.60
2018-06-01T02:56:06.453Z,23.63
2018-06-01T02:57:12.227Z,23.65
2018-06-01T02:58:19.034Z,23.65
2018-06-01T02:59:24.813Z,23.67
2018-06-01T03:00:30.614Z,23.66
2018-06-01T03:01:36.374Z,23.65
2018-06-01T03:02:42.149Z,23.64
2018-06-01T03:03:47.923Z,23.62
2018-06-01T03:04:53.703Z,23.62
2018-06-01T03:05:59.499Z,23.63
2018-06-01T03:07:13.449Z,23.63
2018-06-01T03:08:19.227Z,23.62
2018-06-01T03:09:24.992Z,23.63
2018-06-01T03:10:30.538Z,23.68
2018-06-01T03:11:37.100Z,23.70
2018-06-01T03:12:43.643Z,23.71
2018-06-01T03:13:50.178Z,23.72
2018-06-01T03:14:55.951Z,23.74
2018-06-01T03:16:02.484Z,23.76
2018-06-01T03:17:08.334Z,23.80
2018-06-01T03:18:14.108Z,23.84
2018-06-01T03:19:20.872Z,23.87
2018-06-01T03:20:27.415Z,23.90
2018-06-01T03:21:33.225Z,23.92
2018-06-01T03:22:39.060Z,23.92
2018-06-01T03:23:44.831Z,23.97
2018-06-01T03:24:50.630Z,23.97
2018-06-01T03:25:56.570Z,23.98
2018-06-01T03:27:02.016Z,23.99
2018-06-01T03:28:07.823Z,24.01
2018-06-01T03:29:13.595Z,24.04
2018-06-01T03:30:19.395Z,24.08
2018-06-01T03:31:25.174Z,24.13
2018-06-01T03:32:30.958Z,24.16
2018-06-01T03:33:36.756Z,24.20
2018-06-01T03:34:42.714Z,24.25
2018-06-01T03:35:48.529Z,24.28
2018-06-01T03:36:55.131Z,24.31
2018-06-01T03:38:00.969Z,24.33
2018-06-01T03:39:06.822Z,24.34
2018-06-01T03:40:12.595Z,24.36
2018-06-01T03:41:19.139Z,24.39
2018-06-01T03:42:24.923Z,24.40
2018-06-01T03:43:31.475Z,24.40
2018-06-01T03:44:37.271Z,24.37
2018-06-01T03:45:43.051Z,24.34
2018-06-01T03:46:50.336Z,24.30
2018-06-01T03:47:56.888Z,24.26
2018-06-01T03:49:02.736Z,24.27
2018-06-01T03:50:08.687Z,24.32
2018-06-01T03:51:15.591Z,24.33
2018-06-01T03:52:21.368Z,24.35
2018-06-01T03:53:27.147Z,24.39
2018-06-01T03:54:33.697Z,24.41
2018-06-01T03:55:39.520Z,24.42
2018-06-01T03:56:45.298Z,24.42
2018-06-01T03:57:51.846Z,24.43
2018-06-01T03:58:57.633Z,24.45
2018-06-01T04:00:03.415Z,24.47
2018-06-01T04:01:09.218Z,24.46
2018-06-01T04:02:15.003Z,24.48
2018-06-01T04:03:20.784Z,24.47
2018-06-01T04:04:26.561Z,24.48
2018-06-01T04:05:32.338Z,24.48
2018-06-01T04:06:39.259Z,24.50
2018-06-01T04:07:45.031Z,24.50
2018-06-01T04:08:50.806Z,24.51
2018-06-01T04:09:57.346Z,24.52
2018-06-01T04:11:03.125Z,24.55
2018-06-01T04:12:08.924Z,24.59
2018-06-01T04:13:14.700Z,24.61
2018-06-01T04:14:20.487Z,24.62
2018-06-01T04:15:26.306Z,24.63
2018-06-01T04:16:32.074Z,24.62
2018-06-01T04:17:37.642Z,24.62
2018-06-01T04:18:44.444Z,24.62
2018-06-01T04:19:50.228Z,24.66
2018-06-01T04:20:56.007Z,24.68
2018-06-01T04:22:02.543Z,24.69
2018-06-01T04:23:08.350Z,24.67
2018-06-01T04:24:14.131Z,24.66
2018-06-01T04:25:21.436Z,24.62
2018-06-01T04:26:27.985Z,24.56
2018-06-01T04:27:34.578Z,24.49
2018-06-01T04:28:41.107Z,24.37
2018-06-01T04:29:47.649Z,24.27
2018-06-01T04:30:53.418Z,24.20
2018-06-01T04:31:59.235Z,24.16
2018-06-01T04:33:05.007Z,24.15
2018-06-01T04:34:10.820Z,24.14
2018-06-01T04:35:16.583Z,24.07
2018-06-01T04:36:23.135Z,23.96
2018-06-01T04:37:29.678Z,23.91
2018-06-01T04:38:35.448Z,23.83
2018-06-01T04:39:41.250Z,23.82
2018-06-01T04:40:47.244Z,23.75
2018-06-01T04:41:53.770Z,23.71
2018-06-01T04:43:05.998Z,23.65
2018-06-01T04:44:12.543Z,23.55
2018-06-01T04:45:19.099Z,23.52
2018-06-01T04:46:25.635Z,23.47
2018-06-01T04:47:31.417Z,23.41
2018-06-01T04:48:37.956Z,23.35
2018-06-01T04:49:43.720Z,23.36
2018-06-01T04:50:50.311Z,23.40
2018-06-01T04:51:56.077Z,23.46
2018-06-01T04:53:01.848Z,23.50
2018-06-01T04:54:07.621Z,23.55
2018-06-01T04:55:13.389Z,23.54
2018-06-01T04:56:19.187Z,23.53
2018-06-01T04:57:25.735Z,23.47
2018-06-01T04:58:32.256Z,23.43
2018-06-01T04:59:38.040Z,23.42
2018-06-01T05:00:44.571Z,23.41
2018-06-01T05:01:50.360Z,23.41
2018-06-01T05:02:56.129Z,23.44
2018-06-01T05:04:01.911Z,23.45
2018-06-01T05:05:07.685Z,23.52
2018-06-01T05:06:14.216Z,23.59
2018-06-01T05:07:20.767Z,23.63
2018-06-01T05:08:26.540Z,23.75
2018-06-01T05:09:33.084Z,23.81
2018-06-01T05:10:38.839Z,23.86
2018-06-01T05:11:45.383Z,23.89
2018-06-01T05:12:51.227Z,23.93
2018-06-01T05:13:57.004Z,23.95
2018-06-01T05:15:02.772Z,23.99
2018-06-01T05:16:08.539Z,23.98
2018-06-01T05:17:14.492Z,23.97
2018-06-01T05:18:20.295Z,23.93
2018-06-01T05:19:26.057Z,23.93
2018-06-01T05:20:31.845Z,23.90
2018-06-01T05:21:38.383Z,23.83
2018-06-01T05:22:44.156Z,23.72
2018-06-01T05:23:49.945Z,23.71
2018-06-01T05:24:55.732Z,23.71
2018-06-01T05:26:02.263Z,23.69
2018-06-01T05:27:08.034Z,23.67
2018-06-01T05:28:14.811Z,23.63
2018-06-01T05:29:21.389Z,23.63
2018-06-01T05:30:27.167Z,23.61
2018-06-01T05:31:32.963Z,23.58
2018-06-01T05:32:38.735Z,23.52
2018-06-01T05:33:44.515Z,23.44
2018-06-01T05:34:51.080Z,23.40
2018-06-01T05:35:57.614Z,23.36
2018-06-01T05:37:03.382Z,23.31
2018-06-01T05:38:09.922Z,23.33
2018-06-01T05:39:16.470Z,23.29
2018-06-01T05:40:22.270Z,23.28
2018-06-01T05:41:28.036Z,23.29
2018-06-01T05:42:33.808Z,23.26
2018-06-01T05:43:42.806Z,23.24
2018-06-01T05:44:48.575Z,23.19
2018-06-01T05:45:55.136Z,23.16
2018-06-01T05:47:00.932Z,23.12
2018-06-01T05:48:06.703Z,23.07
2018-06-01T05:49:12.491Z,23.00
2018-06-01T05:50:18.383Z,22.91
2018-06-01T05:51:24.188Z,22.87
2018-06-01T05:52:29.982Z,22.83
2018-06-01T05:53:35.751Z,22.83
2018-06-01T05:54:42.288Z,22.85
2018-06-01T05:55:48.057Z,22.87
2018-06-01T05:56:54.375Z,22.87
2018-06-01T05:58:00.153Z,22.87
2018-06-01T05:59:06.692Z,22.86
2018-06-01T06:00:12.995Z,22.80
2018-06-01T06:01:18.771Z,22.74
2018-06-01T06:02:24.560Z,22.73
2018-06-01T06:03:30.329Z,22.72
2018-06-01T06:04:36.161Z,22.70
2018-06-01T06:05:42.083Z,22.72
2018-06-01T06:06:47.855Z,22.68
2018-06-01T06:07:53.655Z,22.69
2018-06-01T06:09:00.194Z,22.72
2018-06-01T06:10:05.971Z,22.74
2018-06-01T06:11:11.744Z,22.77
2018-06-01T06:12:17.519Z,22.78
2018-06-01T06:13:23.351Z,22.79
2018-06-01T06:14:29.308Z,22.81
2018-06-01T06:15:35.091Z,22.85
2018-06-01T06:16:40.867Z,22.87
2018-06-01T06:17:46.646Z,22.85
2018-06-01T06:18:53.207Z,22.84
2018-06-01T06:19:58.996Z,22.82
2018-06-01T06:21:04.772Z,22.81
2018-06-01T06:22:10.556Z,22.78
2018-06-01T06:23:17.123Z,22.78
2018-06-01T06:24:22.943Z,22.80
2018-06-01T06:25:29.475Z,22.81
2018-06-01T06:26:36.766Z,22.84
2018-06-01T06:27:42.547Z,22.87
2018-06-01T06:28:49.084Z,22.92
2018-06-01T06:29:55.672Z,22.95
2018-06-01T06:31:01.455Z,22.99
2018-06-01T06:32:07.230Z,23.02
2018-06-01T06:33:13.775Z,22.99
2018-06-01T06:34:19.558Z,23.00
2018-06-01T06:35:25.363Z,23.02
2018-06-01T06:36:31.890Z,23.01
2018-06-01T06:37:37.671Z,23.05
2018-06-01T06:38:44.411Z,23.09
2018-06-01T06:39:50.960Z,23.09
2018-06-01T06:40:56.771Z,23.13
2018-06-01T06:42:02.548Z,23.15
2018-06-01T06:43:08.357Z,23.15
2018-06-01T06:44:15.085Z,23.14
2018-06-01T06:45:20.865Z,23.11
2018-06-01T06:46:26.706Z,23.10
2018-06-01T06:47:33.443Z,23.05
2018-06-01T06:48:40.003Z,22.99
2018-06-01T06:49:46.535Z,22.97
2018-06-01T06:50:52.311Z,22.96
2018-06-01T06:51:58.884Z,22.93
2018-06-01T06:53:05.427Z,22.90
2018-06-01T06:54:11.241Z,22.92
2018-06-01T06:55:17.208Z,22.92
2018-06-01T06:56:23.799Z,22.91
2018-06-01T06:57:29.595Z,22.87
2018-06-01T06:58:35.364Z,22.85
2018-06-01T06:59:42.459Z,22.87
2018-06-01T07:00:48.240Z,22.83
2018-06-01T07:01:54.011Z,22.81
2018-06-01T07:02:59.796Z,22.80
2018-06-01T07:04:05.587Z,22.73
2018-06-01T07:05:11.351Z,22.71
2018-06-01T07:06:16.806Z,22.69
2018-06-01T07:07:22.580Z,22.65
2018-06-01T07:08:28.440Z,22.64
2018-06-01T07:09:34.287Z,22.64
2018-06-01T07:10:39.854Z,22.64
2018-06-01T07:11:46.598Z,22.63
2018-06-01T07:12:53.128Z,22.59
2018-06-01T07:13:58.912Z,22.56
2018-06-01T07:15:05.443Z,22.56
2018-06-01T07:16:11.208Z,22.54
2018-06-01T07:17:16.994Z,22.52
2018-06-01T07:18:22.770Z,22.52
2018-06-01T07:19:28.568Z,22.50
2018-06-01T07:20:34.341Z,22.49
2018-06-01T07:21:40.124Z,22.51
2018-06-01T07:22:46.343Z,22.50
2018-06-01T07:23:52.107Z,22.51
2018-06-01T07:24:57.910Z,22.53
2018-06-01T07:26:03.697Z,22.55
2018-06-01T07:27:10.231Z,22.57
2018-06-01T07:28:16.074Z,22.59
2018-06-01T07:29:21.876Z,22.59
2018-06-01T07:30:27.683Z,22.63
2018-06-01T07:31:34.219Z,22.62
2018-06-01T07:32:40.058Z,22.61
2018-06-01T07:33:45.862Z,22.62
2018-06-01T07:34:51.641Z,22.67
2018-06-01T07:35:57.448Z,22.65
2018-06-01T07:37:03.246Z,22.66
2018-06-01T07:38:09.031Z,22.66
2018-06-01T07:39:14.809Z,22.67
2018-06-01T07:40:20.602Z,22.69
2018-06-01T07:41:26.402Z,22.71
2018-06-01T07:42:32.263Z,22.75
2018-06-01T07:43:38.044Z,22.75
2018-06-01T07:44:43.828Z,22.74
2018-06-01T07:45:49.606Z,22.75
2018-06-01T07:46:56.180Z,22.75
2018-06-01T07:48:02.889Z,22.77
2018-06-01T07:49:08.646Z,22.79
2018-06-01T07:50:14.398Z,22.79
2018-06-01T07:51:20.914Z,22.79
2018-06-01T07:52:26.702Z,22.80
2018-06-01T07:53:32.466Z,22.77
2018-06-01T07:54:39.035Z,22.78
2018-06-01T07:55:45.752Z,22.80
2018-06-01T07:56:51.502Z,22.81
2018-06-01T07:57:57.276Z,22.81
2018-06-01T07:59:02.814Z,22.85
2018-06-01T08:00:09.339Z,22.87
2018-06-01T08:01:15.099Z,22.87
2018-06-01T08:02:21.631Z,22.90
2018-06-01T08:03:27.476Z,22.89
2018-06-01T08:04:33.402Z,22.94
2018-06-01T08:05:39.179Z,22.94
2018-06-01T08:06:44.938Z,22.97
2018-06-01T08:07:50.687Z,22.96
2018-06-01T08:08:56.900Z,22.95
2018-06-01T08:10:02.659Z,22.94
2018-06-01T08:11:08.415Z,22.95
2018-06-01T08:12:14.944Z,23.00
2018-06-01T08:13:20.719Z,23.02
2018-06-01T08:14:27.267Z,23.05
2018-06-01T08:15:33.044Z,23.05
2018-06-01T08:16:38.805Z,23.09
2018-06-01T08:17:44.568Z,23.03
2018-06-01T08:18:50.320Z,23.07
2018-06-01T08:19:56.111Z,23.07
2018-06-01T08:21:01.880Z,23.06
2018-06-01T08:22:07.309Z,23.06
2018-06-01T08:23:13.062Z,23.05
2018-06-01T08:24:18.815Z,23.11
2018-06-01T08:25:24.609Z,23.12
2018-06-01T08:26:30.374Z,23.13
2018-06-01T08:27:36.178Z,23.16
2018-06-01T08:28:42.698Z,23.22
2018-06-01T08:29:48.456Z,23.20
2018-06-01T08:30:54.241Z,23.20
2018-06-01T08:32:00.010Z,23.20
2018-06-01T08:33:05.818Z,23.24
2018-06-01T08:34:11.565Z,23.30
2018-06-01T08:35:17.337Z,23.36
2018-06-01T08:36:23.111Z,23.39
2018-06-01T08:37:28.867Z,23.34
2018-06-01T08:38:35.395Z,23.40
2018-06-01T08:39:41.151Z,23.41
2018-06-01T08:40:46.907Z,23.43
2018-06-01T08:41:53.455Z,23.45
2018-06-01T08:42:59.224Z,23.44
2018-06-01T08:44:05.750Z,23.50
2018-06-01T08:45:11.511Z,23.58
2018-06-01T08:46:18.039Z,23.67
2018-06-01T08:48:37.918Z,23.88
2018-06-01T08:49:43.671Z,23.95
2018-06-01T08:50:50.938Z,24.00
2018-06-01T08:51:56.726Z,24.02
2018-06-01T08:53:03.244Z,23.99
2018-06-01T08:54:09.083Z,24.01
2018-06-01T08:55:15.415Z,24.03
2018-06-01T08:56:21.176Z,24.07
2018-06-01T08:57:26.946Z,24.15
2018-06-01T08:58:33.471Z,24.19
2018-06-01T08:59:39.269Z,24.21
2018-06-01T09:00:45.805Z,24.33
2018-06-01T09:01:51.550Z,24.35
2018-06-01T09:02:58.078Z,24.35
2018-06-01T09:04:03.835Z,24.37
2018-06-01T09:05:09.627Z,24.46
2018-06-01T09:06:15.458Z,24.53
2018-06-01T09:07:22.593Z,24.54
2018-06-01T09:08:28.392Z,24.55
2018-06-01T09:09:33.824Z,24.56
2018-06-01T09:10:39.603Z,24.54
2018-06-01T09:11:45.363Z,24.53
2018-06-01T09:12:51.143Z,24.60
2018-06-01T09:13:56.890Z,24.69
2018-06-01T09:15:02.655Z,24.75
2018-06-01T09:16:08.455Z,24.86
2018-06-01T09:17:14.986Z,24.94
2018-06-01T09:18:20.737Z,25.05
2018-06-01T09:19:27.254Z,25.16
2018-06-01T09:20:33.027Z,25.17
2018-06-01T09:21:38.857Z,25.28
2018-06-01T09:22:44.620Z,25.42
2018-06-01T09:23:51.147Z,25.51
2018-06-01T09:24:56.955Z,25.53
2018-06-01T09:26:02.727Z,25.51
2018-06-01T09:27:08.532Z,25.49
2018-06-01T09:28:15.128Z,25.43
2018-06-01T09:29:21.067Z,25.41
2018-06-01T09:30:26.826Z,25.39
2018-06-01T09:31:32.575Z,25.38
2018-06-01T09:32:38.366Z,25.39
2018-06-01T09:33:44.129Z,25.43
2018-06-01T09:34:49.928Z,25.46
2018-06-01T09:35:55.683Z,25.43
2018-06-01T09:37:01.436Z,25.47
2018-06-01T09:38:07.237Z,25.47
2018-06-01T09:39:13.063Z,25.42
2018-06-01T09:40:18.846Z,25.44
2018-06-01T09:41:25.374Z,25.31
2018-06-01T09:42:31.133Z,25.37
2018-06-01T09:43:37.704Z,25.38
2018-06-01T09:44:44.237Z,25.47
2018-06-01T09:45:49.994Z,25.52
2018-06-01T09:46:55.755Z,25.51
2018-06-01T09:48:02.290Z,25.55
2018-06-01T09:49:08.072Z,25.53
2018-06-01T09:50:13.842Z,25.67
2018-06-01T09:51:19.590Z,25.65
2018-06-01T09:52:25.355Z,25.71
2018-06-01T09:53:31.899Z,25.76
2018-06-01T09:54:37.691Z,25.81
2018-06-01T09:55:43.447Z,25.82
2018-06-01T09:56:49.211Z,25.95
2018-06-01T09:57:54.972Z,26.10
2018-06-01T09:59:00.735Z,26.11
2018-06-01T10:00:06.553Z,26.11
2018-06-01T10:01:12.081Z,26.11
2018-06-01T10:02:17.884Z,26.17
2018-06-01T10:03:23.649Z,26.20
2018-06-01T10:04:29.414Z,26.32
2018-06-01T10:05:35.208Z,26.37
2018-06-01T10:06:40.963Z,26.47
2018-06-01T10:07:46.732Z,26.68
2018-06-01T10:08:52.507Z,27.00
2018-06-01T10:10:03.647Z,27.22
2018-06-01T10:11:09.448Z,27.44
2018-06-01T10:12:15.204Z,27.64
2018-06-01T10:13:20.970Z,27.76
2018-06-01T10:14:26.736Z,28.04
2018-06-01T10:15:32.598Z,28.29
2018-06-01T10:16:38.517Z,28.47
2018-06-01T10:17:44.278Z,28.68
2018-06-01T10:18:50.811Z,28.73
2018-06-01T10:19:56.451Z,28.96
2018-06-01T10:21:02.211Z,29.12
2018-06-01T10:22:08.006Z,29.22
2018-06-01T10:23:13.769Z,29.47
2018-06-01T10:24:19.422Z,29.69
2018-06-01T10:25:25.179Z,29.87
2018-06-01T10:26:31.800Z,30.00
2018-06-01T10:27:37.767Z,30.05
2018-06-01T10:28:43.531Z,30.05
2018-06-01T10:29:50.106Z,30.11
2018-06-01T10:30:56.636Z,30.11
2018-06-01T10:32:02.393Z,29.98
2018-06-01T10:33:07.847Z,30.02
2018-06-01T10:34:13.609Z,30.11
2018-06-01T10:35:19.373Z,30.10
2018-06-01T10:36:25.480Z,30.21
2018-06-01T10:37:31.246Z,30.32
2018-06-01T10:38:37.074Z,30.18
2018-06-01T10:39:42.836Z,29.89
2018-06-01T10:40:48.626Z,29.70
2018-06-01T10:41:55.177Z,29.65
2018-06-01T10:43:00.972Z,29.67
2018-06-01T10:44:06.761Z,29.63
2018-06-01T10:45:14.134Z,29.57
2018-06-01T10:46:20.095Z,29.59
2018-06-01T10:47:25.840Z,29.62
2018-06-01T10:48:32.376Z,29.63
2018-06-01T10:49:38.163Z,29.55
2018-06-01T10:50:43.914Z,29.53
2018-06-01T10:51:49.718Z,29.42
2018-06-01T10:52:55.478Z,29.39
2018-06-01T10:54:02.237Z,29.39
2018-06-01T10:55:08.812Z,29.35
2018-06-01T10:56:15.527Z,29.30
2018-06-01T10:57:21.300Z,29.31
2018-06-01T10:58:27.068Z,29.30
2018-06-01T10:59:32.870Z,29.19
2018-06-01T11:00:39.343Z,29.18
2018-06-01T11:01:44.865Z,29.15
2018-06-01T11:02:50.335Z,29.19
2018-06-01T11:03:56.134Z,29.19
2018-06-01T11:05:01.896Z,29.15
2018-06-01T11:06:07.410Z,29.08
2018-06-01T11:07:18.116Z,28.99
2018-06-01T11:08:24.985Z,28.93
2018-06-01T11:09:30.776Z,28.90
2018-06-01T11:10:36.546Z,28.87
2018-06-01T11:11:43.112Z,28.86
2018-06-01T11:12:49.731Z,28.85
2018-06-01T11:13:58.080Z,28.85
2018-06-01T11:15:05.514Z,28.87
2018-06-01T11:16:11.376Z,28.85
2018-06-01T11:17:18.242Z,28.85
2018-06-01T11:18:24.097Z,28.85
2018-06-01T11:19:30.279Z,28.78
2018-06-01T11:20:36.606Z,28.71
2018-06-01T11:21:44.298Z,28.64
2018-06-01T11:22:50.990Z,28.57
2018-06-01T11:23:56.743Z,28.55
2018-06-01T11:25:02.632Z,28.55
2018-06-01T11:26:10.673Z,28.50
2018-06-01T11:27:16.445Z,28.54
2018-06-01T11:28:23.074Z,28.55
2018-06-01T11:29:28.914Z,28.54
2018-06-01T11:30:35.430Z,28.55
2018-06-01T11:31:41.191Z,28.40
2018-06-01T11:32:47.717Z,28.37
2018-06-01T11:33:53.510Z,28.27
2018-06-01T11:35:00.025Z,28.23
2018-06-01T11:36:06.014Z,28.21
2018-06-01T11:37:11.850Z,28.27
2018-06-01T11:38:17.409Z,28.35
2018-06-01T11:39:23.207Z,28.41
2018-06-01T11:40:29.027Z,28.47
2018-06-01T11:41:35.463Z,28.52
2018-06-01T11:42:41.232Z,28.47
2018-06-01T11:43:47.854Z,28.46
2018-06-01T11:44:54.547Z,28.50
2018-06-01T11:46:00.378Z,28.52
2018-06-01T11:47:06.149Z,28.51
2018-06-01T11:48:11.737Z,28.52
2018-06-01T11:49:18.257Z,28.56
2018-06-01T11:50:24.841Z,28.59
2018-06-01T11:51:30.477Z,28.62
2018-06-01T11:52:37.131Z,28.68
2018-06-01T11:53:43.099Z,28.68
2018-06-01T11:54:49.750Z,28.69
2018-06-01T11:55:57.356Z,28.71
2018-06-01T11:57:05.943Z,28.67
2018-06-01T11:58:13.460Z,28.72
2018-06-01T11:59:20.072Z,28.74
2018-06-01T12:00:26.970Z,28.71
2018-06-01T12:01:33.725Z,28.69
2018-06-01T12:02:39.497Z,28.77
2018-06-01T12:03:46.344Z,28.80
2018-06-01T12:04:52.326Z,28.78
2018-06-01T12:05:58.320Z,28.67
2018-06-01T12:07:04.418Z,28.64
2018-06-01T12:08:10.333Z,28.72
2018-06-01T12:09:18.016Z,28.79
2018-06-01T12:10:23.602Z,28.83
2018-06-01T12:11:30.285Z,28.85
2018-06-01T12:12:36.086Z,28.93
2018-06-01T12:13:43.548Z,29.00
2018-06-01T12:14:50.004Z,29.04
2018-06-01T12:15:55.773Z,29.10
2018-06-01T12:17:02.517Z,29.17
2018-06-01T12:18:08.338Z,29.23
2018-06-01T12:19:14.089Z,29.26
2018-06-01T12:20:20.860Z,29.27
2018-06-01T12:21:26.635Z,29.34
2018-06-01T12:22:32.390Z,29.38
2018-06-01T12:23:38.183Z,29.40
2018-06-01T12:24:44.028Z,29.40
2018-06-01T12:25:49.854Z,29.38
2018-06-01T12:26:56.741Z,29.39
2018-06-01T12:28:02.893Z,29.44
2018-06-01T12:29:10.930Z,29.46
2018-06-01T12:30:16.997Z,29.43
2018-06-01T12:31:24.192Z,29.32
2018-06-01T12:32:29.985Z,29.22
2018-06-01T12:33:35.780Z,29.27
2018-06-01T12:34:43.172Z,29.34
2018-06-01T12:35:50.156Z,29.37
2018-06-01T12:36:55.931Z,29.43
2018-06-01T12:38:01.729Z,29.47
2018-06-01T12:39:07.294Z,29.54
2018-06-01T12:40:13.153Z,29.62
2018-06-01T12:41:19.056Z,29.70
2018-06-01T12:42:24.821Z,29.74
2018-06-01T12:43:30.616Z,29.81
2018-06-01T12:44:37.163Z,29.87
2018-06-01T12:45:42.964Z,29.92
2018-06-01T12:46:48.723Z,29.98
2018-06-01T12:47:54.521Z,30.02
2018-06-01T12:49:00.269Z,30.11
2018-06-01T12:50:06.504Z,30.11
2018-06-01T12:51:13.084Z,30.05
2018-06-01T12:52:18.856Z,30.02
2018-06-01T12:53:26.131Z,30.02
2018-06-01T12:54:32.182Z,30.02
2018-06-01T12:55:37.957Z,30.03
2018-06-01T12:56:43.755Z,30.08
2018-06-01T12:57:49.544Z,30.09
2018-06-01T12:58:56.890Z,30.10
2018-06-01T13:00:02.788Z,30.15
2018-06-01T13:01:08.742Z,30.20
2018-06-01T13:02:16.942Z,30.32
2018-06-01T13:03:22.973Z,30.41
2018-06-01T13:04:29.494Z,30.58
2018-06-01T13:05:35.309Z,30.66
2018-06-01T13:06:41.071Z,30.72
2018-06-01T13:07:46.885Z,30.73
2018-06-01T13:08:52.677Z,30.65
2018-06-01T13:09:58.624Z,30.61
2018-06-01T13:11:04.372Z,30.59
2018-06-01T13:12:10.795Z,30.62
2018-06-01T13:13:16.573Z,30.69
2018-06-01T13:14:23.101Z,30.72
2018-06-01T13:15:28.870Z,30.80
2018-06-01T13:16:34.719Z,30.85
2018-06-01T13:17:42.337Z,30.81
2018-06-01T13:18:48.135Z,30.84
2018-06-01T13:19:53.929Z,30.89
2018-06-01T13:20:59.701Z,30.90
2018-06-01T13:22:05.475Z,30.95
2018-06-01T13:23:12.979Z,31.02
2018-06-01T13:24:19.546Z,31.08
2018-06-01T13:25:26.067Z,31.17
2018-06-01T13:26:31.871Z,31.18
2018-06-01T13:27:37.631Z,31.25
2018-06-01T13:28:43.428Z,31.31
2018-06-01T13:29:50.005Z,31.28
2018-06-01T13:30:56.756Z,31.25
2018-06-01T13:32:02.668Z,31.29
2018-06-01T13:33:08.686Z,31.25
2018-06-01T13:34:14.598Z,31.20
2018-06-01T13:35:20.690Z,31.22
2018-06-01T13:36:26.848Z,31.21
2018-06-01T13:37:32.603Z,31.19
2018-06-01T13:38:39.119Z,31.20
2018-06-01T13:39:45.045Z,31.07
2018-06-01T13:40:50.838Z,31.05
2018-06-01T13:41:56.614Z,31.11
2018-06-01T13:43:02.382Z,31.22
2018-06-01T13:44:08.148Z,31.23
2018-06-01T13:45:13.946Z,31.26
2018-06-01T13:46:20.486Z,31.38
2018-06-01T13:47:26.255Z,31.42
2018-06-01T13:48:34.400Z,31.32
2018-06-01T13:49:40.176Z,31.30
2018-06-01T13:50:46.925Z,31.35
2018-06-01T13:51:53.476Z,31.38
2018-06-01T13:53:01.719Z,31.31
2018-06-01T13:54:07.504Z,31.33
2018-06-01T13:55:13.309Z,31.23
2018-06-01T13:56:19.238Z,31.15
2018-06-01T13:57:25.913Z,31.12
2018-06-01T13:58:32.620Z,31.11
2018-06-01T13:59:38.571Z,31.12
2018-06-01T14:00:44.318Z,30.99
2018-06-01T14:01:50.076Z,30.86
2018-06-01T14:02:57.367Z,30.70
2018-06-01T14:04:03.117Z,30.61
2018-06-01T14:05:09.636Z,30.51
2018-06-01T14:06:15.395Z,30.44
2018-06-01T14:07:22.073Z,30.43
2018-06-01T14:08:29.469Z,30.38
2018-06-01T14:09:35.247Z,30.32
2018-06-01T14:10:41.008Z,30.31
2018-06-01T14:11:46.897Z,30.20
2018-06-01T14:12:52.669Z,30.06